Silver Ridge Township, Maine
Current Conditions -  °F | °C
As of 4:53 PM on Monday 20 Oct 2014 (Local Time) from KMLT Reporting Station
Clear Clear  
Wind Chill:   Ceiling: Unl
Heat Index:   Visibility: 10mi
Dew Point: -4°   Wind: 5mph
Humidity: 39%   Direction: 280°W
Pressure: 29.88"   Gusts: 17mph
Location:  45.8047°N, 68.2984°W
Report Text: KMLT 202053Z AUTO 28004G15KT 10SM CLR 09/M04 A2988 RMK AO2 SLP127 T00891044 53004
Loading
Personal Weather Stations






























Interactive Weather Map
Tropical Storm Tracking
New forecast layout! Learn more

10-Day Weather Forecast

Advertisements
Track Severe Weather on mobile